Date,TemperatureHighF,TemperatureAvgF,TemperatureLowF,DewpointHighF,DewpointAvgF,DewpointLowF,HumidityHigh,HumidityAvg,HumidityLow,PressureMaxIn,PressureMinIn,WindSpeedMaxMPH,WindSpeedAvgMPH,GustSpeedMaxMPH,PrecipitationSumIn
2013-1-1,58.1,54.8,51.8,49.2,47.7,44.8,81,77,72,30.14,29.96,18,4,18,0.00
2013-1-2,54.3,47.6,40.1,48.6,42.6,35.4,84,83,81,30.21,29.91,18,4,18,0.22
2013-1-3,41.2,39.7,35.0,36.3,34.8,30.1,83,82,82,30.27,30.14,13,3,13,0.05
2013-1-4,52.5,39.8,29.8,44.1,33.4,25.3,83,78,69,30.33,30.21,9,3,13,0.00
2013-1-5,51.4,40.5,30.1,40.0,31.7,23.1,76,71,63,30.40,30.27,12,2,12,0.00
2013-1-6,49.1,46.1,42.0,41.7,38.6,34.0,79,75,72,30.29,30.09,12,1,12,0.01
2013-1-7,54.1,45.0,37.3,43.8,37.2,31.7,80,74,65,30.46,30.14,21,5,21,0.00
2013-1-8,60.9,49.9,40.1,51.5,42.1,32.5,79,75,71,30.46,30.36,16,4,16,0.00
2013-1-9,69.0,56.2,45.2,60.8,49.7,39.4,82,79,74,30.43,30.36,8,2,8,0.00
2013-1-10,63.8,54.5,48.0,54.2,46.7,38.3,83,75,65,30.52,30.40,18,3,18,0.00
2013-1-11,65.0,56.6,48.4,58.7,49.7,39.1,83,78,70,30.44,30.17,18,4,18,0.21
2013-1-12,64.1,57.5,52.6,59.4,52.9,47.9,86,84,83,30.20,30.12,9,2,9,0.00
2013-1-13,64.8,58.7,53.4,60.2,54.3,49.3,86,85,85,30.20,30.12,12,2,12,0.01
2013-1-14,68.2,60.3,55.9,63.5,55.9,51.6,86,85,84,30.22,30.12,14,3,14,0.01
2013-1-15,61.1,57.6,54.4,56.9,53.4,50.3,86,86,85,30.21,30.09,15,3,15,0.02
2013-1-16,64.1,59.0,54.5,59.7,54.8,50.4,87,86,85,30.09,29.99,15,3,15,0.01
2013-1-17,66.4,55.7,41.5,62.1,51.5,37.6,87,86,85,30.01,29.80,26,5,26,0.28
2013-1-18,47.2,41.1,36.5,41.7,36.2,31.8,86,83,78,30.55,29.95,28,6,28,0.01
2013-1-19,59.9,44.8,33.9,50.9,38.0,28.4,81,77,71,30.52,30.20,11,2,11,0.00
2013-1-20,59.9,50.0,41.3,52.6,43.8,35.5,82,79,75,30.21,30.01,15,4,15,0.00
2013-1-21,60.4,49.4,37.7,51.7,42.5,32.1,81,77,72,30.09,29.90,17,4,17,0.00
2013-1-22,49.8,40.4,29.2,41.8,26.8,14.6,75,59,47,30.29,29.95,19,5,19,0.00
2013-1-23,44.1,34.3,25.1,30.2,17.8,11.6,58,51,41,30.40,30.14,17,4,17,0.00
2013-1-24,49.8,37.8,25.4,38.1,23.8,9.6,67,57,47,30.53,30.00,29,9,29,0.00
2013-1-25,38.7,30.5,22.6,27.6,18.8,9.0,74,62,51,30.53,30.11,19,4,19,0.18
2013-1-26,43.9,34.1,29.0,36.3,27.2,22.3,77,75,73,30.40,30.13,15,4,15,0.00
2013-1-27,42.9,31.9,27.9,32.6,25.5,22.2,80,77,67,30.59,30.40,18,4,18,0.01
2013-1-28,52.2,39.2,32.5,44.9,31.9,24.5,78,75,72,30.52,30.33,9,3,9,0.00
2013-1-29,65.2,56.0,49.3,59.5,50.5,44.0,83,81,80,30.27,30.15,14,4,14,0.01
2013-1-30,64.5,60.1,54.0,59.1,55.0,49.0,84,83,82,30.17,29.65,29,7,29,0.01
2013-1-31,64.3,52.9,42.7,59.4,45.1,32.2,84,75,64,30.08,29.54,33,10,33,0.20
2013-2-1,54.9,42.9,28.3,40.4,28.5,13.8,66,57,45,30.40,30.02,30,8,30,0.00
2013-2-2,45.0,35.1,24.2,35.8,21.6,11.8,72,58,45,30.43,30.04,13,3,13,0.00
2013-2-3,54.9,43.7,34.0,42.6,33.7,24.6,74,68,57,30.05,29.86,22,3,22,0.00
2013-2-4,49.6,41.2,30.2,35.7,29.6,21.6,70,63,53,30.17,30.00,12,3,12,0.00
2013-2-5,58.2,50.6,43.2,47.3,40.9,33.4,76,69,64,30.07,29.91,17,5,17,0.00
2013-2-6,63.4,51.0,38.9,53.0,42.8,32.6,79,74,66,30.27,29.99,14,3,14,0.00
2013-2-7,60.2,52.2,46.4,51.8,45.5,39.3,83,78,72,30.29,29.84,34,7,34,2.00
2013-2-8,58.5,51.8,45.9,53.7,46.8,41.5,85,83,81,30.00,29.49,33,7,33,0.60
2013-2-9,54.4,43.7,32.5,42.0,34.5,23.7,81,70,59,30.38,30.00,21,5,21,0.00
2013-2-10,54.2,42.7,28.8,43.0,34.2,21.1,76,72,66,30.49,30.31,13,4,13,0.00
2013-2-11,59.4,57.4,49.4,54.2,51.5,42.2,84,81,76,30.33,29.97,23,7,23,0.11
2013-2-12,61.2,56.2,51.8,54.5,50.6,46.1,84,81,77,30.09,29.96,15,4,15,0.07
2013-2-13,55.3,51.3,47.6,50.8,46.5,42.4,85,83,81,30.01,29.65,21,4,21,0.34
2013-2-14,51.3,46.4,40.2,45.7,40.8,35.5,84,81,77,30.11,29.81,17,3,17,0.01
2013-2-15,56.5,45.7,38.1,48.3,39.1,31.9,83,78,72,30.11,29.97,15,3,15,0.00
2013-2-16,51.8,41.5,34.0,45.2,35.6,28.5,82,79,76,29.97,29.70,27,5,27,0.15
2013-2-17,38.6,32.7,25.9,30.5,25.8,17.4,82,76,66,30.30,29.86,29,7,29,0.04
2013-2-18,49.7,38.0,24.3,38.4,27.0,15.9,72,65,58,30.47,30.30,17,4,18,0.00
2013-2-19,58.3,51.6,40.0,50.8,44.0,31.7,81,75,65,30.32,29.93,20,5,25,0.14
2013-2-20,58.1,46.4,35.7,43.2,37.2,27.5,81,71,52,30.13,29.96,17,4,18,0.00
2013-2-21,56.4,42.7,32.0,40.8,32.0,23.3,74,66,52,30.27,30.09,16,3,16,0.00
2013-2-22,48.2,41.6,38.3,38.4,31.7,27.9,69,68,65,30.35,30.21,20,5,20,0.01
2013-2-23,59.5,50.8,47.1,53.3,45.4,41.9,84,82,77,30.09,29.83,8,3,17,0.61
2013-2-24,60.5,50.3,43.3,54.7,45.4,38.5,85,83,80,30.01,29.76,7,3,14,0.00
2013-2-25,44.6,41.4,36.7,39.8,35.6,32.0,84,80,75,30.20,30.01,11,5,22,0.00
2013-2-26,62.9,53.8,40.7,58.0,48.5,33.7,85,82,76,30.10,29.62,23,9,31,0.51
2013-2-27,59.0,52.3,46.9,52.2,46.8,42.4,85,82,77,29.82,29.63,24,7,26,0.01
2013-2-28,57.6,48.9,41.8,49.8,41.3,33.1,81,75,68,29.85,29.70,17,5,17,0.00
2013-3-1,54.4,44.8,36.1,42.0,34.7,28.3,73,68,61,29.91,29.82,18,4,18,0.00
2013-3-2,55.4,41.8,33.1,40.2,31.3,24.7,73,66,54,29.92,29.80,14,2,14,0.00
2013-3-3,50.2,39.5,31.7,33.6,27.2,20.6,70,62,50,29.96,29.83,18,4,18,0.00
2013-3-4,50.5,38.0,29.6,29.0,22.9,18.0,63,55,42,30.12,29.95,20,5,20,0.00
2013-3-5,59.3,49.0,33.0,50.2,37.6,21.4,75,65,58,30.13,29.64,21,4,21,0.03
2013-3-6,58.5,47.9,41.2,50.8,38.7,32.1,78,70,61,29.92,29.51,39,13,39,0.08
2013-3-7,57.3,45.5,37.4,40.2,33.2,28.5,71,62,52,30.18,29.92,29,7,29,0.00
2013-3-8,55.5,45.5,35.8,35.3,30.0,25.2,66,55,44,30.22,30.08,30,7,30,0.00
2013-3-9,64.0,49.3,37.8,41.2,32.9,26.7,64,54,41,30.28,30.21,20,6,20,0.00
2013-3-12,60.0,57.9,55.4,54.8,52.9,50.4,84,83,83,29.88,29.79,17,4,17,0.81
2013-3-13,62.8,52.3,44.5,53.8,44.2,36.4,84,74,62,30.06,29.88,19,6,19,0.00
2013-3-14,54.2,43.6,34.3,36.5,30.1,23.4,68,59,49,30.23,30.06,24,6,24,0.00
2013-3-15,55.6,46.8,32.5,43.4,33.4,22.2,68,60,47,30.21,29.98,24,6,24,0.00
2013-3-16,63.4,57.4,53.6,53.6,48.5,43.3,75,72,68,29.98,29.75,26,9,26,0.00
2013-3-17,62.7,54.4,47.1,54.7,47.0,39.9,79,76,71,30.16,29.87,23,6,23,0.00
2013-3-18,63.5,53.9,47.7,56.1,47.2,40.5,80,78,75,30.14,29.91,22,4,26,0.00
2013-3-19,68.6,58.1,48.4,58.8,51.6,41.8,83,79,67,29.98,29.76,19,4,19,0.41
2013-3-20,59.0,49.8,41.3,42.3,35.9,30.0,78,59,47,30.12,29.83,18,4,18,0.00
2013-3-21,56.4,43.8,33.5,41.1,30.7,19.6,73,61,45,29.97,29.69,22,5,22,0.00
2013-3-22,47.9,39.8,28.9,33.6,23.9,15.2,59,53,45,30.10,29.96,19,5,20,0.00
2013-3-23,55.4,47.1,38.3,39.2,33.4,27.5,67,59,49,30.06,29.92,10,2,10,0.00
2013-3-24,57.4,48.2,41.7,51.2,40.8,32.3,81,75,67,29.95,29.42,33,7,33,0.47
2013-3-25,51.9,45.4,41.1,45.3,38.7,32.1,82,77,69,29.82,29.50,26,6,27,0.01
2013-3-26,51.5,43.1,35.3,38.9,32.7,26.9,72,67,61,30.08,29.82,17,5,17,0.00
2013-3-27,57.5,46.2,35.7,39.6,32.6,26.9,70,60,46,30.21,30.08,21,5,22,0.00
2013-3-28,58.6,46.5,36.2,36.9,30.1,24.8,64,53,40,30.26,30.14,14,4,17,0.00
2013-3-29,60.7,47.7,33.5,39.6,33.1,23.0,66,57,42,30.33,30.21,18,5,18,0.00
2013-3-30,62.1,53.5,44.3,49.3,42.9,35.5,72,67,61,30.26,30.15,17,3,17,0.00
2013-3-31,62.0,54.7,46.0,53.9,46.9,37.5,77,75,71,30.16,29.88,25,5,25,0.00
2013-4-2,55.2,52.3,49.3,44.8,43.1,41.0,74,71,68,30.15,30.09,12,3,12,0.00
2013-4-3,54.7,49.0,45.7,42.8,39.3,36.0,77,69,63,30.31,30.12,14,4,14,0.00
2013-4-4,61.7,50.3,45.0,55.8,41.7,35.8,81,72,67,30.33,29.77,29,7,29,1.15
2013-4-5,60.7,50.3,42.6,54.8,45.3,37.5,84,83,81,30.03,29.74,21,4,21,0.00
2013-4-6,62.7,50.6,40.7,52.0,42.7,36.0,84,75,63,30.31,30.03,22,5,22,0.00
2013-4-7,65.4,54.3,44.0,56.0,46.5,37.1,80,75,70,30.30,30.19,12,4,12,0.00
2013-4-10,70.0,64.5,59.0,63.5,58.7,53.8,84,82,79,30.18,30.04,19,5,19,0.01
2013-4-11,70.5,64.2,58.6,64.7,58.8,53.5,84,83,81,30.07,29.91,18,5,18,0.01
2013-4-12,68.3,64.2,61.5,63.5,59.5,57.0,85,84,83,29.92,29.72,24,7,24,1.05
2013-4-13,64.5,59.4,51.4,58.5,54.0,45.5,86,82,78,30.05,29.77,19,6,19,0.01
2013-4-14,70.1,59.6,47.2,62.2,52.9,42.0,83,79,73,30.15,30.04,11,2,11,0.00
2013-4-15,68.8,64.1,59.3,61.9,57.8,53.4,82,80,78,30.22,30.00,32,6,32,0.47
2013-4-16,73.3,65.8,61.1,66.7,59.9,55.6,84,81,78,30.30,30.19,13,4,13,0.00
2013-4-17,72.3,64.5,55.5,65.1,58.5,50.4,84,81,77,30.27,30.18,14,2,14,0.00
2013-4-18,74.1,67.4,61.3,66.7,61.1,55.9,83,80,77,30.24,30.11,13,5,13,0.01
2013-4-19,72.6,68.9,66.2,66.9,63.3,60.5,83,82,81,30.12,29.91,30,8,30,0.05
2013-4-20,68.8,57.8,50.6,63.4,52.6,46.1,85,83,80,30.28,29.89,21,5,21,1.41
2013-4-21,62.6,54.1,47.6,53.5,45.9,38.0,82,74,64,30.47,30.27,30,6,30,0.00
2013-4-22,57.0,52.0,47.6,50.6,45.2,38.3,82,78,70,30.43,30.16,29,9,29,0.01
2013-4-23,65.6,57.0,51.5,57.8,50.8,46.5,84,80,74,30.20,30.11,21,6,21,0.00
2013-4-24,69.8,61.0,49.7,62.1,54.6,44.1,81,79,76,30.22,30.08,18,4,18,0.00
2013-4-25,69.7,62.5,52.8,62.7,56.3,46.0,83,80,76,30.30,30.08,18,5,20,0.09
2013-4-26,70.6,58.4,47.0,57.4,49.0,41.5,81,72,59,30.42,30.28,19,5,19,0.00
2013-4-27,70.3,61.2,53.8,58.4,50.9,45.0,77,69,61,30.40,30.31,18,6,18,0.00
2013-4-28,71.8,63.2,54.8,56.1,51.3,45.1,70,65,54,30.31,30.15,13,4,13,0.00
2013-4-29,65.7,64.1,61.8,59.7,56.0,54.2,83,75,70,30.16,30.00,12,4,18,0.81
2013-4-30,71.3,65.7,61.6,65.3,60.0,56.2,84,82,80,30.13,30.00,14,3,14,0.00
2013-5-1,72.4,64.7,59.9,65.2,58.7,54.3,83,81,76,30.27,30.11,20,4,20,0.05
2013-5-2,69.0,63.7,61.6,62.8,58.2,56.4,84,82,77,30.30,30.22,24,6,24,0.11
2013-5-3,69.1,61.0,56.3,61.4,53.6,48.1,83,77,70,30.22,30.15,14,8,28,0.00
2013-5-4,65.7,58.8,54.6,57.9,52.2,48.1,82,79,74,30.16,30.05,11,8,25,0.05
2013-5-5,71.6,63.0,55.9,64.8,56.9,50.5,83,81,77,30.06,29.98,12,7,22,0.03
2013-5-6,68.1,64.9,62.1,62.1,59.2,56.8,83,82,80,30.00,29.89,18,7,29,0.60
2013-5-7,67.1,62.0,56.5,61.3,56.3,51.7,84,82,78,30.00,29.89,21,4,21,0.00
2013-5-8,71.5,65.2,57.3,64.3,58.4,51.5,82,79,73,30.06,29.96,19,4,19,0.00
2013-5-9,74.2,68.2,59.6,66.1,61.3,53.7,81,78,75,30.07,29.99,14,4,15,0.00
2013-5-10,74.8,68.4,59.0,67.5,62.1,53.5,83,80,77,30.12,30.04,11,3,14,0.00
2013-5-11,76.0,70.7,68.0,69.7,64.8,62.2,83,81,79,30.06,29.87,16,6,22,0.00
2013-5-12,78.3,71.3,64.5,70.1,63.6,52.8,83,77,66,30.00,29.80,14,4,15,0.00
2013-5-13,71.7,62.7,50.9,54.5,47.7,37.4,68,58,46,30.16,29.99,19,5,19,0.00
2013-5-14,73.0,60.4,46.1,50.0,43.4,35.7,68,54,36,30.27,30.16,20,5,20,0.00
2013-5-15,73.8,68.4,64.2,63.2,57.9,50.0,76,69,60,30.17,29.98,23,8,24,0.00
2013-5-16,76.4,70.9,66.7,67.9,63.3,59.7,79,77,74,30.02,29.94,21,7,21,0.00
2013-5-17,82.0,72.7,67.1,72.7,65.2,60.7,80,77,73,30.15,30.00,13,3,13,0.00
2013-5-18,79.3,71.8,68.3,72.2,65.4,62.0,82,80,78,30.21,30.13,12,2,12,0.00
2013-5-19,78.2,72.6,67.9,71.2,66.5,62.2,83,81,79,30.21,30.13,22,3,22,0.00
2013-5-20,78.7,73.7,69.8,71.6,67.3,64.0,82,81,78,30.18,30.10,20,5,20,0.00
2013-5-21,78.9,74.3,71.7,71.9,68.1,65.6,83,81,78,30.11,30.02,18,5,18,0.00
2013-5-22,81.6,75.1,71.8,74.8,68.9,66.2,83,81,78,30.09,30.01,17,4,17,0.00
2013-5-23,77.5,73.4,70.8,71.6,67.9,65.4,84,83,82,30.03,29.87,15,4,15,0.42
2013-5-24,79.2,71.5,59.7,70.5,63.5,47.4,84,76,64,30.16,29.80,25,6,25,0.00
2013-5-25,74.3,61.6,49.4,53.2,46.8,40.0,71,59,44,30.28,30.14,16,4,16,0.00
2013-5-26,75.2,64.4,56.0,60.3,53.2,46.0,74,67,56,30.26,30.16,13,2,13,0.00
2013-5-27,75.7,66.3,53.4,62.7,55.8,46.0,78,69,60,30.31,30.23,12,3,12,0.00
2013-5-28,80.0,71.8,61.1,69.8,63.2,53.8,79,74,70,30.31,30.23,12,2,12,0.00
2013-5-29,81.1,74.8,67.2,72.4,67.2,61.1,82,77,73,30.30,30.22,12,3,12,0.00
2013-5-30,82.3,75.3,65.3,73.6,68.0,59.0,81,78,75,30.31,30.24,12,3,12,0.00
2013-5-31,81.7,76.4,69.2,74.2,69.7,63.5,82,80,77,30.27,30.17,12,4,14,0.00
2013-6-1,82.3,77.2,72.1,74.2,70.2,66.3,83,79,75,30.20,30.11,16,5,16,0.00
2013-6-2,82.3,77.5,73.8,74.5,70.5,67.6,82,79,76,30.13,30.00,17,6,17,0.00
2013-6-3,79.9,73.9,69.4,73.8,68.2,63.8,84,82,81,30.02,29.89,27,5,27,0.55
2013-6-4,79.3,73.8,69.1,73.7,68.2,64.2,85,83,79,30.12,29.93,18,4,18,0.00
2013-6-5,80.5,73.8,67.7,70.1,65.5,61.3,81,75,69,30.14,30.05,20,6,20,0.00
2013-6-6,79.8,75.5,72.4,71.9,68.4,63.7,82,79,74,30.08,29.89,18,6,18,0.15
2013-6-7,80.2,76.8,74.9,74.2,71.1,69.2,84,82,81,29.90,29.61,33,11,33,0.60
2013-6-8,81.8,78.2,75.4,75.4,72.4,69.7,84,82,80,30.13,29.89,20,7,20,0.00
2013-6-9,82.2,77.6,74.3,76.4,72.2,68.6,84,83,82,30.19,30.12,21,5,21,0.00
2013-6-10,82.2,78.1,72.9,75.8,72.3,67.1,84,82,80,30.18,30.01,24,7,25,0.08
2013-6-11,82.3,78.1,74.2,75.1,71.9,68.7,84,81,79,30.03,29.91,24,9,24,0.00
2013-6-12,85.8,79.3,70.8,77.6,72.5,65.5,84,80,75,30.00,29.90,10,4,15,0.01
2013-6-13,85.0,80.5,72.2,78.6,74.2,65.9,83,81,78,29.91,29.65,27,7,27,0.31
2013-6-14,80.0,73.1,67.9,69.4,64.2,57.5,83,74,63,30.03,29.69,19,5,19,0.19
2013-6-15,83.3,73.7,60.5,68.7,61.2,52.2,77,66,55,30.14,30.03,19,4,19,0.00
2013-6-16,82.8,77.5,71.5,70.6,66.1,61.9,74,68,63,30.19,30.08,22,8,22,0.00
2013-6-17,84.8,79.2,75.8,73.9,69.3,65.4,76,72,69,30.10,30.01,21,8,21,0.00
2013-6-18,83.9,79.4,74.7,76.3,72.4,68.4,81,79,77,30.03,29.82,24,7,24,0.01
2013-6-19,77.8,73.5,69.7,71.5,67.6,63.5,84,82,80,30.12,29.85,22,5,22,0.30
2013-6-20,82.1,74.1,66.6,72.2,65.2,60.5,83,74,61,30.22,30.09,18,5,18,0.00
2013-6-21,85.2,75.7,67.4,75.0,67.8,59.6,81,77,71,30.22,30.16,19,6,19,0.00
2013-6-22,78.0,75.3,71.9,72.1,69.2,66.1,82,82,79,30.21,30.16,25,9,25,0.75
2013-6-23,83.0,78.6,74.8,76.8,72.6,69.3,84,82,80,30.25,30.18,17,4,17,0.08
2013-6-24,82.4,78.8,76.0,76.0,72.9,70.5,83,82,81,30.26,30.14,19,5,19,0.07
2013-6-25,84.7,79.3,72.7,77.8,73.2,66.5,83,82,79,30.18,30.06,18,6,18,0.25
2013-6-26,84.8,80.3,77.5,77.8,73.9,71.6,83,81,79,30.08,29.97,22,7,22,0.00
2013-6-27,84.2,79.7,72.9,77.6,73.3,66.7,82,81,78,29.97,29.79,29,9,29,0.01
2013-6-28,85.0,80.8,75.3,78.3,74.8,69.4,83,82,80,29.83,29.66,25,9,25,0.03
2013-6-29,81.2,79.0,77.4,75.4,73.2,71.5,83,82,81,29.83,29.66,29,11,29,0.01
2013-6-30,81.5,77.0,72.8,75.8,71.6,67.7,84,83,82,29.95,29.79,26,8,26,0.58
2013-7-1,78.8,76.7,73.9,73.5,71.6,68.8,85,84,83,30.10,29.90,27,7,27,0.58
2013-7-2,85.6,79.5,73.3,79.5,74.0,68.3,85,83,81,30.25,30.09,31,6,31,0.22
2013-7-3,84.8,80.4,76.0,78.5,74.6,70.5,84,83,80,30.30,30.21,25,5,25,0.09
2013-7-4,85.7,81.4,77.6,78.1,74.4,71.7,83,80,75,30.32,30.26,14,5,14,0.00
2013-7-5,87.2,82.1,78.2,78.8,74.7,71.8,82,78,75,30.32,30.23,17,5,17,0.00
2013-7-6,86.6,82.0,78.3,76.9,73.5,70.8,80,76,71,30.29,30.19,14,4,17,0.00
2013-7-7,87.0,81.4,77.6,76.0,72.1,69.4,77,74,69,30.23,30.13,16,6,16,0.00
2013-7-8,86.2,81.0,76.6,76.6,72.3,69.2,79,75,70,30.23,30.14,15,5,18,0.00
2013-7-9,86.0,80.4,75.3,77.9,73.1,68.6,81,78,76,30.23,30.13,18,4,18,0.04
2013-7-10,86.3,81.1,77.8,78.1,73.9,71.4,82,79,75,30.17,30.03,18,5,18,0.00
2013-7-11,86.0,80.9,76.7,78.1,73.8,70.4,82,79,76,30.05,29.93,20,6,20,0.00
2013-7-12,79.6,76.5,73.1,73.6,70.7,67.8,84,82,80,30.01,29.91,22,5,22,1.62
2013-7-13,83.8,78.5,74.5,76.9,72.6,69.3,84,82,79,30.22,30.00,28,8,28,0.32
2013-7-14,86.3,81.6,78.1,79.0,74.9,72.3,83,80,77,30.30,30.21,19,7,19,0.00
2013-7-15,86.5,81.6,75.7,78.0,74.3,69.8,82,79,74,30.31,30.26,16,5,16,0.00
2013-7-16,88.5,82.2,75.6,79.2,74.2,69.5,82,77,72,30.28,30.18,14,4,14,0.00
2013-7-17,89.7,82.2,76.3,80.3,73.9,69.2,80,76,73,30.21,30.12,12,3,12,0.00
2013-7-18,88.8,81.8,73.8,78.4,73.2,67.6,82,76,68,30.16,30.09,15,3,15,0.00
2013-7-19,87.9,82.7,78.4,79.1,74.8,71.7,80,77,74,30.16,30.05,20,7,20,0.00
2013-7-20,87.2,82.0,78.7,78.6,74.2,71.8,80,77,74,30.10,30.00,25,10,25,0.00
2013-7-21,84.4,80.7,77.8,76.4,73.5,70.5,81,79,77,30.05,29.96,24,7,24,0.04
2013-7-22,85.2,80.5,75.9,78.0,74.1,70.0,83,81,78,30.00,29.87,23,5,23,0.00
2013-7-23,83.2,79.2,76.6,76.4,73.1,71.1,83,82,79,29.91,29.77,21,7,21,0.00
2013-7-24,85.5,79.7,75.0,78.7,73.6,69.4,83,82,79,29.84,29.76,14,4,14,0.00
2013-7-25,86.6,78.8,72.4,78.6,72.2,66.9,84,80,76,30.01,29.79,17,3,17,0.00
2013-7-26,83.2,77.1,70.6,74.5,69.4,64.5,82,77,73,30.10,30.01,15,5,15,0.00
2013-7-27,86.5,79.3,70.6,75.7,70.5,64.1,81,75,68,30.08,29.98,19,4,19,0.00
2013-7-28,87.4,81.6,77.6,78.9,74.1,70.7,81,78,74,30.04,29.91,20,5,21,0.00
2013-7-29,86.0,79.9,75.7,78.9,73.5,69.6,82,81,79,30.16,30.03,15,4,17,0.02
2013-7-30,83.1,77.9,72.5,76.1,71.4,67.1,83,81,77,30.21,30.14,12,2,12,0.00
2013-7-31,84.9,79.5,74.8,75.3,71.6,68.9,83,77,72,30.16,30.05,16,5,16,0.00
2013-8-1,82.2,78.1,72.8,75.2,71.4,66.2,82,80,75,30.05,29.92,23,5,24,0.49
2013-8-2,86.5,80.8,75.8,78.8,74.3,69.9,83,81,78,30.06,29.92,20,6,20,0.00
2013-8-3,86.6,81.6,79.2,79.2,75.4,73.2,83,81,78,30.07,29.94,16,6,17,0.00
2013-8-4,85.5,78.6,70.4,78.5,71.9,63.5,83,80,75,30.03,29.88,11,3,16,0.49
2013-8-5,83.1,75.2,66.2,71.7,65.5,60.3,82,72,60,30.10,30.02,14,4,14,0.00
2013-8-6,83.9,78.9,72.5,70.8,67.2,62.3,72,67,63,30.09,30.02,14,3,14,0.00
2013-8-7,86.3,79.2,74.5,74.9,69.6,65.1,75,72,69,30.12,30.06,16,5,19,0.00
2013-8-8,87.8,83.0,80.0,79.3,75.0,71.7,79,77,73,30.09,30.04,15,5,15,0.00
2013-8-9,87.3,83.1,80.0,79.1,76.0,74.0,82,79,77,30.11,30.05,23,8,23,0.00
2013-8-10,87.5,82.7,78.1,80.2,76.1,71.5,83,81,78,30.15,30.05,19,6,19,0.00
2013-8-11,87.5,80.8,77.1,80.2,74.4,70.5,82,81,78,30.13,30.04,12,4,18,0.29
2013-8-12,88.0,81.7,77.2,81.1,75.5,71.5,84,82,80,30.08,29.96,14,4,14,0.00
2013-8-13,87.0,82.3,77.1,79.7,75.9,71.2,83,81,79,29.97,29.82,21,6,21,0.00
2013-8-14,79.4,74.7,68.8,73.4,69.0,62.5,84,82,80,30.06,29.81,8,5,23,0.26
2013-8-15,69.0,67.5,65.8,64.0,62.5,60.0,85,84,80,30.13,30.06,15,4,15,0.55
2013-8-16,73.9,70.3,67.2,68.8,65.5,62.5,85,85,84,30.13,30.05,14,4,14,0.01
2013-8-17,77.7,74.5,68.4,72.8,69.8,63.4,86,85,84,30.14,30.05,20,4,20,0.55
2013-8-18,82.4,75.3,71.8,76.8,70.7,67.3,87,86,83,30.21,30.13,10,2,11,0.01
2013-8-19,82.0,76.7,74.3,76.9,71.8,69.5,86,85,84,30.18,30.11,12,4,12,0.51
2013-8-20,83.4,78.0,73.4,77.3,72.4,69.0,86,83,82,30.19,30.10,11,3,15,0.51
2013-8-21,85.9,78.3,73.5,79.0,72.3,68.4,84,82,79,30.24,30.14,14,2,15,0.00
2013-8-22,84.7,78.9,72.8,78.2,72.6,67.3,83,81,80,30.16,30.02,16,3,16,0.00
2013-8-23,87.2,79.6,73.6,79.5,73.2,67.4,83,81,77,30.05,29.93,19,4,19,0.01
2013-8-24,80.5,74.0,68.8,72.9,67.2,62.4,84,79,73,30.26,30.02,21,5,21,0.52
2013-8-25,70.2,68.1,65.9,62.7,61.2,59.3,80,78,77,30.27,30.24,12,4,12,0.00
2013-8-26,82.1,73.4,64.8,71.9,64.4,58.5,80,74,66,30.30,30.14,5,3,11,0.00
2013-8-27,84.0,77.0,67.8,70.9,66.4,59.6,77,70,64,30.15,30.00,18,5,18,0.00
2013-8-28,85.3,79.2,74.3,75.7,70.5,65.5,80,75,70,30.03,29.92,17,6,17,0.00
2013-8-29,88.5,80.0,74.2,78.8,72.6,67.5,81,78,72,30.00,29.86,18,4,23,0.20
2013-8-30,82.9,76.6,69.4,75.3,69.7,63.7,83,79,76,30.05,29.97,13,5,16,0.00
2013-8-31,86.5,79.3,71.7,78.4,72.2,66.3,83,79,75,30.01,29.92,13,2,13,0.00
2013-9-1,86.3,81.4,77.5,79.4,75.0,71.6,83,81,79,29.97,29.86,21,6,21,0.00
2013-9-2,86.0,80.6,74.1,79.5,74.7,68.6,84,82,80,29.93,29.83,22,7,22,0.28
2013-9-3,85.3,78.9,71.7,78.1,73.0,66.3,84,82,79,29.96,29.83,19,5,19,0.18
2013-9-4,82.2,73.4,69.6,76.0,68.2,64.6,85,84,81,30.08,29.95,14,2,14,0.00
2013-9-5,86.5,75.6,72.6,78.8,69.7,66.8,83,82,78,30.10,30.02,7,1,20,0.34
2013-9-6,85.2,75.7,68.6,77.5,69.7,63.9,85,82,77,30.11,30.04,23,5,23,0.10
2013-9-7,82.2,73.5,66.5,69.3,64.3,59.7,82,74,61,30.11,30.00,14,4,14,0.01
2013-9-8,84.5,76.4,66.3,72.8,66.7,57.9,78,72,68,30.01,29.91,13,3,13,0.00
2013-9-9,85.5,78.7,72.0,76.9,70.2,65.4,81,76,70,30.17,30.00,18,4,18,0.00
2013-9-10,86.1,77.7,71.7,77.1,69.7,65.6,82,77,69,30.24,30.17,9,3,19,0.00
2013-9-11,84.8,78.0,70.2,75.5,69.8,64.1,82,76,70,30.23,30.11,16,3,16,0.00
2013-9-12,85.1,78.0,71.8,76.8,70.5,65.5,82,78,72,30.11,29.84,19,3,19,0.00
2013-9-13,87.7,80.1,74.6,75.4,71.0,66.3,78,74,66,29.85,29.74,21,4,21,0.00
2013-9-14,80.6,73.0,66.6,69.5,64.0,59.5,78,74,67,30.13,29.83,20,5,20,0.00
2013-9-15,82.1,73.9,65.8,70.0,64.8,59.2,81,73,64,30.23,30.12,15,5,15,0.00
2013-9-16,86.5,76.0,69.6,77.4,68.8,63.3,82,79,73,30.17,30.05,20,2,20,0.50
2013-9-17,69.7,68.6,67.0,63.6,62.5,61.0,81,81,81,30.15,30.13,15,6,15,0.00
2013-9-18,77.2,70.5,65.0,66.6,59.3,55.3,72,68,64,30.23,30.16,14,4,16,0.00
2013-9-19,79.5,68.5,60.3,64.5,57.6,52.0,77,69,57,30.20,30.10,13,3,13,0.00
2013-9-20,80.1,71.4,64.6,68.9,62.4,57.0,79,73,67,30.11,29.99,12,2,12,0.00
2013-9-21,77.7,72.8,67.5,70.7,65.7,59.7,81,78,75,29.99,29.77,16,3,16,0.09
2013-9-22,78.8,73.7,67.5,72.4,67.6,62.2,83,81,78,29.85,29.69,27,6,27,0.45
2013-9-23,73.4,66.4,60.5,63.6,58.7,51.9,83,76,68,30.09,29.85,19,4,19,0.01
2013-9-24,74.9,65.2,55.3,62.6,56.0,48.9,80,72,63,30.12,29.98,14,2,14,0.00
2013-9-25,73.5,65.3,57.8,63.0,56.8,50.6,80,74,69,29.99,29.87,14,3,14,0.00
2013-9-26,77.1,68.7,62.7,67.1,60.6,55.6,81,75,68,29.99,29.85,13,4,13,0.05
2013-9-27,75.6,67.7,62.0,65.3,58.8,55.2,81,73,64,30.13,29.98,19,6,24,0.00
2013-9-28,77.0,68.7,62.5,65.4,59.3,55.0,78,72,65,30.18,30.09,21,6,21,0.00
2013-9-29,76.4,67.6,61.5,67.6,59.9,55.2,81,76,70,30.13,30.00,11,4,13,0.00
2013-9-30,77.5,65.0,58.0,64.9,56.2,49.6,82,74,61,30.08,29.99,14,3,14,0.00
2013-10-1,78.7,66.5,55.9,66.0,56.6,48.8,80,71,62,30.14,30.05,11,2,13,0.00
2013-10-2,62.7,61.7,60.8,53.8,53.1,52.4,76,73,71,30.11,30.09,5,0,5,0.00
2013-10-3,80.9,73.7,65.4,71.6,65.9,58.7,81,77,73,30.17,30.11,6,2,12,0.00
2013-10-4,82.5,74.5,65.3,73.0,67.1,59.3,82,78,73,30.17,30.09,5,2,12,0.00
2013-10-5,82.7,76.2,66.0,74.8,68.8,60.3,83,78,73,30.15,30.08,12,2,12,0.00
2013-10-6,81.1,75.8,68.8,74.3,69.3,63.1,83,80,78,30.10,29.99,19,4,19,0.14
2013-10-7,82.9,78.0,74.7,75.9,71.6,68.1,83,81,78,29.99,29.88,18,5,18,0.66
2013-10-8,74.4,65.1,62.0,68.2,60.4,57.5,86,85,81,30.09,29.92,31,8,31,2.09
2013-10-9,65.4,63.0,60.5,61.4,59.1,56.5,87,87,86,30.07,29.89,27,9,27,1.29
2013-10-10,62.7,60.6,59.4,58.8,56.8,55.5,88,87,87,29.92,29.86,24,8,24,0.01
2013-10-11,65.8,62.3,59.6,61.7,58.3,55.7,87,87,86,29.94,29.87,13,4,13,0.00
2013-10-12,68.1,66.6,62.8,63.8,62.4,58.9,87,86,86,30.05,29.94,9,2,10,0.01
2013-10-13,75.9,69.6,65.5,70.7,65.1,61.2,87,85,83,30.12,30.03,13,3,15,0.00
2013-10-14,71.7,69.3,65.6,66.5,64.2,60.3,85,84,83,30.14,30.08,21,7,21,0.00
2013-10-15,65.6,64.1,63.2,60.3,59.1,58.3,84,84,83,30.11,30.06,16,5,16,0.00
2013-10-16,72.7,68.7,66.1,67.2,63.8,61.5,85,84,83,30.02,29.95,5,3,13,0.00
2013-10-17,75.1,70.6,60.7,68.9,64.9,56.2,85,82,80,29.99,29.90,15,5,15,0.00
2013-10-18,76.9,71.2,67.5,70.3,65.4,62.5,84,82,79,30.02,29.90,14,4,14,0.07
2013-10-19,75.2,70.5,67.0,70.4,65.6,62.0,85,84,83,29.97,29.86,8,1,8,0.30
2013-10-20,69.6,63.9,58.5,64.9,58.0,52.4,85,81,76,30.11,29.89,8,4,22,0.00
2013-10-21,58.9,56.1,54.9,52.8,50.3,49.2,82,81,80,30.11,30.09,9,3,9,0.00
2013-10-22,67.0,63.3,57.9,58.8,56.3,50.7,80,78,74,30.01,29.85,8,1,9,0.02
2013-10-23,70.6,62.5,54.4,62.8,55.6,44.8,84,78,70,29.97,29.67,20,4,21,0.36
2013-10-24,62.5,51.4,43.9,47.9,40.9,35.8,73,67,57,30.18,29.97,12,3,17,0.00
2013-10-25,58.2,49.0,39.8,44.3,37.9,29.9,74,66,52,30.36,30.16,20,4,20,0.00
2013-10-26,64.1,49.9,38.8,49.0,39.1,29.6,73,67,56,30.36,30.12,9,3,11,0.00
2013-10-27,67.9,55.6,45.0,51.3,43.4,35.4,71,64,53,30.17,30.08,12,2,12,0.00
2013-10-28,69.2,57.8,47.8,59.9,49.0,39.8,79,73,64,30.27,30.16,11,1,11,0.00
2013-10-29,72.4,60.7,51.0,62.0,52.4,44.9,80,74,67,30.33,30.24,12,2,12,0.00
2013-10-30,72.6,61.3,53.9,62.8,53.7,47.9,81,76,69,30.33,30.21,8,2,9,0.00
2013-10-31,72.3,63.1,56.5,66.2,56.6,50.4,82,79,76,30.25,30.03,12,2,25,0.00
2013-11-1,73.8,71.8,68.7,68.3,66.4,63.0,84,83,82,30.02,29.76,17,6,29,0.02
2013-11-2,71.7,65.1,60.2,66.6,60.3,55.0,85,84,83,29.90,29.71,17,4,17,0.88
2013-11-3,61.1,54.0,50.4,56.2,48.7,45.0,84,82,81,30.13,29.89,20,5,20,0.00
2013-11-4,59.3,49.8,43.4,48.3,40.9,36.0,75,71,63,30.49,30.34,15,5,23,0.00
2013-11-5,72.8,60.5,48.5,62.4,52.0,40.6,79,74,66,30.45,30.39,23,6,23,0.00
2013-11-6,69.7,63.2,56.3,62.9,56.8,49.3,83,80,75,30.39,30.12,20,5,20,0.17
2013-11-7,68.9,65.1,52.9,64.2,60.3,47.3,85,84,82,30.12,29.91,15,3,21,0.05
2013-11-8,57.3,48.6,39.0,47.3,40.6,31.6,82,74,64,30.33,30.04,20,5,20,0.00
2013-11-9,62.4,51.3,37.8,51.3,42.9,30.9,78,73,66,30.39,30.21,12,2,12,0.00
2013-11-10,68.9,57.3,52.2,54.0,47.8,44.1,74,71,59,30.24,30.09,15,4,15,0.00
2013-11-11,61.7,49.4,42.5,47.2,38.9,34.4,73,67,57,30.33,30.17,8,2,20,0.00
2013-11-12,67.3,49.6,36.0,54.3,39.4,25.4,78,68,56,30.36,30.02,30,5,30,0.00
2013-11-13,44.9,36.6,30.4,29.9,24.9,19.1,72,63,51,30.51,30.34,27,6,27,0.02
2013-11-14,57.4,40.4,26.5,37.5,27.4,17.6,71,60,42,30.52,30.37,5,1,10,0.00
2013-11-15,66.3,54.2,39.7,55.0,45.2,31.3,77,72,67,30.39,30.24,13,2,13,0.33
2013-11-16,72.7,64.1,59.0,65.8,57.7,52.9,82,80,77,30.25,30.18,11,3,11,0.01
2013-11-17,73.6,64.2,56.1,67.5,58.8,51.0,84,83,81,30.21,29.97,22,3,22,0.09
2013-11-18,72.2,66.3,57.1,67.2,61.4,52.1,85,84,83,29.98,29.79,16,5,17,0.05
2013-11-19,57.6,51.1,42.9,52.2,42.3,34.5,83,72,63,30.28,29.90,21,6,21,0.00
2013-11-20,58.1,50.1,43.0,48.5,41.6,35.0,75,73,69,30.39,30.25,21,8,21,0.00
2013-11-21,66.2,57.1,50.7,59.5,50.9,43.1,83,80,75,30.44,30.37,13,5,17,0.04
2013-11-22,68.9,60.8,53.9,63.2,55.7,49.2,84,83,82,30.39,30.12,12,3,12,0.00
2013-11-23,66.1,58.6,47.1,61.1,53.7,41.7,84,84,82,30.12,30.02,19,4,19,0.03
2013-11-24,46.9,36.4,27.8,41.7,27.0,17.9,82,69,63,30.55,30.09,22,6,27,0.00
2013-11-25,45.2,34.7,25.4,32.8,24.4,16.0,70,66,59,30.60,30.36,12,4,14,0.00
2013-11-26,67.5,57.2,39.8,62.2,50.6,30.8,84,78,70,30.36,29.67,27,8,27,1.04
2013-11-27,68.4,54.7,34.2,63.7,50.5,30.0,86,86,84,30.15,29.45,27,9,27,0.45
2013-11-28,44.9,35.0,28.2,38.4,29.6,24.0,85,80,76,30.51,30.14,20,4,21,0.00
2013-11-29,53.8,41.5,32.0,43.8,33.7,26.2,80,74,66,30.60,30.49,17,4,17,0.00
2013-11-30,57.8,45.9,35.7,48.8,38.0,28.4,76,74,72,30.58,30.33,21,6,21,0.00
2013-12-1,58.7,49.6,44.1,52.1,43.5,37.4,82,79,76,30.33,30.02,12,2,12,0.03
2013-12-2,54.4,49.6,43.4,49.1,44.4,37.7,84,82,80,30.02,29.80,12,3,12,0.00
2013-12-3,58.6,48.5,37.1,51.1,42.1,32.1,83,79,73,30.04,29.88,7,1,7,0.00
2013-12-4,64.7,56.6,51.9,59.4,51.2,45.3,85,82,78,30.14,30.03,5,0,8,0.49
2013-12-5,70.1,61.0,50.9,65.4,56.5,46.6,86,85,84,30.19,30.12,13,2,13,0.00
2013-12-6,68.3,64.0,61.3,63.7,59.6,57.1,86,86,85,30.18,30.09,17,5,17,0.00
2013-12-7,63.9,52.7,41.8,59.6,48.8,38.2,87,86,86,30.42,30.09,22,6,22,0.32
2013-12-8,45.0,42.9,41.3,41.4,39.3,37.7,87,87,87,30.41,30.26,18,6,20,0.17
2013-12-9,64.2,53.1,43.2,60.3,49.3,39.6,87,87,86,30.27,30.09,12,2,12,0.01
2013-12-10,62.9,53.8,38.9,59.0,50.1,35.3,87,87,87,30.33,29.86,24,5,24,0.18
2013-12-11,49.9,37.0,32.2,44.3,32.7,28.6,87,84,81,30.48,30.30,15,2,15,0.00
2013-12-12,47.8,36.7,30.4,39.9,31.5,23.8,83,81,73,30.41,30.26,12,3,22,0.00
2013-12-13,50.4,38.2,27.1,40.7,30.3,20.9,79,73,65,30.45,30.33,10,2,10,0.00
2013-12-14,64.3,51.8,35.4,58.0,44.5,27.9,83,76,73,30.34,29.77,31,6,31,1.18
2013-12-15,60.7,52.9,41.4,55.8,48.7,37.1,86,86,83,30.08,29.71,18,3,18,0.05
2013-12-16,56.6,44.5,36.4,50.4,39.4,32.3,86,82,78,30.22,30.08,14,3,14,0.00
2013-12-17,58.3,52.2,41.0,50.8,45.9,35.6,82,79,76,30.20,29.98,22,6,22,0.00
2013-12-18,52.3,42.1,31.2,45.3,33.4,22.9,77,71,60,30.34,30.00,14,3,21,0.00
2013-12-19,58.1,44.7,30.7,46.8,36.1,22.8,77,72,64,30.38,30.30,10,2,13,0.00
2013-12-20,66.8,54.9,43.4,59.7,48.4,37.0,82,79,75,30.30,30.18,12,1,12,0.00
2013-12-21,65.6,60.6,53.4,60.5,55.5,48.0,85,83,81,30.21,30.14,8,2,12,0.01
2013-12-22,68.0,63.6,60.6,63.3,59.1,56.1,86,85,84,30.18,30.12,16,5,18,0.16
2013-12-23,65.0,62.8,59.2,61.0,58.7,55.2,87,86,86,30.17,30.04,18,6,20,0.11
2013-12-24,59.2,44.9,35.5,55.3,40.9,30.7,87,86,83,30.42,30.05,20,6,20,0.21
2013-12-25,44.5,36.9,29.0,38.4,31.4,24.2,83,80,77,30.53,30.38,17,5,18,0.00
2013-12-26,44.5,41.8,38.6,39.4,36.7,33.3,83,82,79,30.39,30.24,17,4,17,0.06
2013-12-27,53.2,42.5,36.4,44.7,36.0,30.2,83,78,71,30.44,30.33,20,4,20,0.00
2013-12-28,60.5,46.8,34.6,49.5,38.1,28.5,78,72,66,30.43,30.17,11,3,11,0.00
2013-12-29,64.3,60.1,51.7,58.5,53.7,42.2,84,79,69,30.17,29.74,31,8,31,0.22
2013-12-30,58.2,50.3,43.3,53.0,45.4,39.1,85,83,82,30.14,29.94,9,2,9,0.00
2013-12-31,53.1,45.7,36.7,46.6,39.7,30.4,83,80,74,30.38,30.11,19,2,19,0.00
2014-1-1,53.1,43.6,34.8,44.3,36.6,29.0,80,76,72,30.44,30.17,10,2,10,0.02
2014-1-2,58.6,50.4,46.0,54.1,45.4,40.3,85,83,78,30.15,29.54,21,3,21,0.54